LFSN/ENC METAR and TAF weather

Enter ICAO airport designator
Station Type Date Time Source
LFSN METAR 2020/01/18 15:30 UTC NOAA

LFSN 181530Z AUTO 27004KT 230V310 9999 FEW014 SCT028 BKN039 05/01 Q1028


Station Type Date Time Source
LFSN Decoded METAR 2020/01/18 15:30 UTC NOAA

Nancy / Essey, France (LFSN) 48-41N 006-13E 217M
Jan 18, 2020 - 10:30 AM EST / 2020.01.18 1530 UTC
Wind: from the W (270 degrees) at 5 MPH (4 KT) (direction variable):0
Visibility: greater than 7 mile(s):0
Sky conditions: mostly cloudy
Temperature: 41 F (5 C)
Dew Point: 33 F (1 C)
Relative Humidity: 75%
Pressure (altimeter): 30.36 in. Hg (1028 hPa)
ob: LFSN 181530Z AUTO 27004KT 230V310 9999 FEW014 SCT028 BKN039 05/01 Q1028
cycle: 15

Station Type Date Time Source
LFSN TAF 2012/03/14 16:58 UTC NOAA

TAF LFSN 141600Z 1416/1512 CNL

Example: see airport list